createdAt,value
2018-09-06T00:02:25.925Z,12.8
2018-09-06T00:07:28.491Z,12.8
2018-09-06T00:12:30.851Z,12.8
2018-09-06T00:17:33.307Z,12.8
2018-09-06T00:22:35.790Z,12.8
2018-09-06T00:27:38.284Z,12.8
2018-09-06T00:32:40.679Z,12.7
2018-09-06T00:37:43.187Z,12.7
2018-09-06T00:42:45.796Z,12.7
2018-09-06T00:47:48.060Z,12.8
2018-09-06T00:52:50.507Z,12.8
2018-09-06T00:57:52.990Z,13
2018-09-06T01:02:55.470Z,13
2018-09-06T01:07:57.893Z,13.1
2018-09-06T01:13:00.339Z,13.3
2018-09-06T01:18:02.849Z,13.4
2018-09-06T01:23:05.381Z,13.4
2018-09-06T01:28:07.715Z,13.3
2018-09-06T01:33:10.182Z,13.2
2018-09-06T01:38:12.635Z,13.2
2018-09-06T01:43:15.189Z,13.2
2018-09-06T01:48:17.547Z,13.2
2018-09-06T01:53:20.050Z,13.2
2018-09-06T01:58:22.654Z,13.2
2018-09-06T02:03:24.915Z,13.2
2018-09-06T02:08:27.381Z,13.3
2018-09-06T02:13:30.827Z,13.2
2018-09-06T02:18:32.316Z,13.2
2018-09-06T02:23:34.835Z,13.2
2018-09-06T02:28:37.230Z,13.1
2018-09-06T02:33:39.668Z,13
2018-09-06T02:38:42.173Z,12.8
2018-09-06T02:43:44.678Z,12.8
2018-09-06T02:48:47.043Z,12.8
2018-09-06T02:53:49.504Z,12.7
2018-09-06T02:58:51.958Z,12.7
2018-09-06T03:03:54.586Z,12.6
2018-09-06T03:08:56.879Z,12.6
2018-09-06T03:14:00.152Z,12.6
2018-09-06T03:19:01.827Z,12.5
2018-09-06T03:24:04.386Z,12.5
2018-09-06T03:29:06.721Z,12.5
2018-09-06T03:34:09.470Z,12.5
2018-09-06T03:39:11.718Z,12.6
2018-09-06T03:44:14.081Z,12.6
2018-09-06T03:49:16.573Z,12.7
2018-09-06T03:54:19.007Z,12.9
2018-09-06T03:59:21.449Z,13
2018-09-06T04:04:24.358Z,13.2
2018-09-06T04:09:26.375Z,13.3
2018-09-06T04:14:28.877Z,13.5
2018-09-06T04:19:31.306Z,13.5
2018-09-06T04:24:34.223Z,13.6
2018-09-06T04:29:36.339Z,13.8
2018-09-06T04:34:38.737Z,13.8
2018-09-06T04:39:41.264Z,14
2018-09-06T04:44:43.627Z,14
2018-09-06T04:49:46.020Z,14
2018-09-06T04:54:48.482Z,14.1
2018-09-06T04:59:50.992Z,14.2
2018-09-06T05:04:53.399Z,14.3
2018-09-06T05:09:55.939Z,14.5
2018-09-06T05:14:58.326Z,14.6
2018-09-06T05:25:03.237Z,14.6
2018-09-06T05:30:05.704Z,14.7
2018-09-06T05:35:08.218Z,14.7
2018-09-06T05:45:13.090Z,14.9
2018-09-06T05:50:15.528Z,14.9
2018-09-06T05:55:18.039Z,15
2018-09-06T06:00:20.436Z,15.2
2018-09-06T06:05:22.981Z,15.5
2018-09-06T06:10:25.369Z,15.8
2018-09-06T06:15:27.830Z,16.2
2018-09-06T06:20:30.339Z,16.6
2018-09-06T06:25:32.790Z,17.2
2018-09-06T06:30:35.205Z,18.2
2018-09-06T06:35:37.757Z,19.8
2018-09-06T06:40:40.107Z,22.5
2018-09-06T06:45:42.569Z,25.3
2018-09-06T06:50:45.016Z,27.4
2018-09-06T06:55:47.527Z,28.7
2018-09-06T07:00:50.088Z,29.9
2018-09-06T07:05:52.542Z,30.6
2018-09-06T07:10:54.849Z,30.3
2018-09-06T07:15:57.314Z,29.7
2018-09-06T07:41:09.710Z,24.9
2018-09-06T07:46:12.175Z,24.5
2018-09-06T07:51:14.599Z,24.4
2018-09-06T07:56:17.166Z,24.6
2018-09-06T08:01:19.706Z,25.2
2018-09-06T08:06:21.949Z,25.9
2018-09-06T08:11:24.389Z,27.9
2018-09-06T08:16:26.849Z,29.9
2018-09-06T08:21:29.438Z,31.7
2018-09-06T08:26:31.770Z,33.5
2018-09-06T08:31:34.320Z,33.4
2018-09-06T08:36:36.851Z,32.3
2018-09-06T08:41:40.645Z,31.9
2018-09-06T08:46:41.746Z,30.4
2018-09-06T08:51:44.169Z,28.9
2018-09-06T08:56:46.556Z,28
2018-09-06T09:01:48.995Z,27.1
2018-09-06T09:06:51.432Z,26.5
2018-09-06T09:11:53.901Z,26.1
2018-09-06T09:16:56.369Z,26
2018-09-06T09:21:58.900Z,26
2018-09-06T09:27:01.355Z,25.9
2018-09-06T09:32:03.776Z,25.4
2018-09-06T09:37:06.216Z,25.2
2018-09-06T09:42:08.753Z,24.8
2018-09-06T09:52:13.577Z,24.8
2018-09-06T09:57:16.099Z,24.9
2018-09-06T10:02:18.488Z,24.7
2018-09-06T10:07:20.977Z,24.7
2018-09-06T10:12:23.457Z,24.6
2018-09-06T10:17:25.872Z,24.7
2018-09-06T10:22:28.408Z,25.1
2018-09-06T10:32:33.238Z,24.9
2018-09-06T10:37:35.740Z,24.8
2018-09-06T10:42:38.157Z,24.8
2018-09-06T10:47:41.080Z,24.9
2018-09-06T10:52:43.134Z,24.9
2018-09-06T10:57:45.574Z,25.2
2018-09-06T11:02:48.041Z,25.5
2018-09-06T11:07:50.500Z,26
2018-09-06T11:17:55.460Z,25.8
2018-09-06T11:22:57.834Z,25.5
2018-09-06T11:28:00.354Z,25.6
2018-09-06T11:33:02.731Z,25.7
2018-09-06T11:38:05.203Z,25.8
2018-09-06T11:43:07.671Z,25.7
2018-09-06T11:48:10.165Z,25.7
2018-09-06T11:53:12.597Z,25.6
2018-09-06T11:58:15.037Z,25.4
2018-09-06T12:03:17.509Z,25.3
2018-09-06T12:08:19.946Z,25.2
2018-09-06T12:13:22.508Z,25.2
2018-09-06T12:18:24.920Z,25.3
2018-09-06T12:23:27.414Z,25.8
2018-09-06T12:28:29.778Z,26.5
2018-09-06T12:33:32.321Z,26.8
2018-09-06T12:38:34.744Z,26.9
2018-09-06T12:43:37.178Z,27
2018-09-06T12:48:39.689Z,27.4
2018-09-06T12:53:42.077Z,27.1
2018-09-06T12:58:44.552Z,26.3
2018-09-06T13:03:46.994Z,26.3
2018-09-06T13:08:49.581Z,26.1
2018-09-06T13:13:51.905Z,25.6
2018-09-06T13:18:54.453Z,25.2
2018-09-06T13:23:56.828Z,25.2
2018-09-06T13:28:59.290Z,25.4
2018-09-06T13:34:01.763Z,25.3
2018-09-06T13:39:04.206Z,25.1
2018-09-06T13:44:06.815Z,25
2018-09-06T13:49:09.114Z,25
2018-09-06T13:54:11.576Z,24.9
2018-09-06T13:59:14.058Z,25.1
2018-09-06T14:04:16.510Z,25
2018-09-06T14:09:18.963Z,24.7
2018-09-06T14:14:21.501Z,24.5
2018-09-06T14:19:23.877Z,24.2
2018-09-06T14:24:26.387Z,23.9
2018-09-06T14:29:28.877Z,23.9
2018-09-06T14:34:31.242Z,23.8
2018-09-06T14:39:33.703Z,23.8
2018-09-06T14:44:36.169Z,23.7
2018-09-06T14:49:38.699Z,23.9
2018-09-06T14:54:41.101Z,24
2018-09-06T14:59:43.530Z,24.2
2018-09-06T15:04:46.046Z,24.3
2018-09-06T15:09:48.467Z,24.3
2018-09-06T15:14:50.988Z,24.3
2018-09-06T15:19:53.493Z,24.1
2018-09-06T15:24:55.899Z,23.9
2018-09-06T15:29:58.316Z,24
2018-09-06T15:35:00.827Z,24.2
2018-09-06T15:40:03.274Z,24.4
2018-09-06T15:45:05.798Z,24.5
2018-09-06T15:50:08.301Z,24.6
2018-09-06T15:55:10.723Z,24.8
2018-09-06T16:00:13.078Z,25
2018-09-06T16:05:15.497Z,25.1
2018-09-06T16:10:18.066Z,25.4
2018-09-06T16:15:20.421Z,25.6
2018-09-06T16:20:22.879Z,25.8
2018-09-06T16:25:25.349Z,25.7
2018-09-06T16:30:27.830Z,25.5
2018-09-06T16:35:30.254Z,25.2
2018-09-06T16:40:32.719Z,24.9
2018-09-06T16:45:35.193Z,24.7
2018-09-06T16:50:37.648Z,24.4
2018-09-06T16:55:40.165Z,23.9
2018-09-06T17:00:42.625Z,23.5
2018-09-06T17:05:45.039Z,23.1
2018-09-06T17:10:47.462Z,22.8
2018-09-06T17:15:50.098Z,22.6
2018-09-06T17:20:52.415Z,22.4
2018-09-06T17:25:55.049Z,22.2
2018-09-06T17:30:57.495Z,22
2018-09-06T17:35:59.772Z,21.8
2018-09-06T17:41:02.288Z,21.6
2018-09-06T17:46:04.989Z,21.4
2018-09-06T17:51:07.292Z,21.1
2018-09-06T17:56:09.610Z,20.7
2018-09-06T18:01:12.092Z,20.4
2018-09-06T18:06:14.532Z,20
2018-09-06T18:11:17.063Z,19.7
2018-09-06T18:16:19.468Z,19.4
2018-09-06T18:21:21.894Z,19.1
2018-09-06T18:26:24.534Z,19
2018-09-06T18:31:26.799Z,18.8
2018-09-06T18:36:29.519Z,18.8
2018-09-06T18:41:31.790Z,18.8
2018-09-06T18:46:34.191Z,18.8
2018-09-06T18:51:36.642Z,18.8
2018-09-06T18:56:39.097Z,18.7
2018-09-06T19:01:41.564Z,18.7
2018-09-06T19:06:44.071Z,18.7
2018-09-06T19:11:46.505Z,18.7
2018-09-06T19:16:49.007Z,18.7
2018-09-06T19:21:51.381Z,18.7
2018-09-06T19:26:53.853Z,18.6
2018-09-06T19:31:56.404Z,18.6
2018-09-06T19:36:58.750Z,18.5
2018-09-06T19:42:01.233Z,18.4
2018-09-06T19:47:03.777Z,18.4
2018-09-06T19:52:06.147Z,18.5
2018-09-06T19:57:08.594Z,18.6
2018-09-06T20:02:11.060Z,18.7
2018-09-06T20:07:13.530Z,18.7
2018-09-06T20:12:16.045Z,18.8
2018-09-06T20:17:18.448Z,18.9
2018-09-06T20:22:21.063Z,19
2018-09-06T20:27:23.421Z,19.1
2018-09-06T20:32:25.854Z,19.1
2018-09-06T20:37:28.298Z,19.2
2018-09-06T20:42:30.733Z,19.1
2018-09-06T20:47:33.192Z,19.2
2018-09-06T20:52:35.648Z,19.2
2018-09-06T20:57:38.103Z,19.2
2018-09-06T21:02:40.563Z,19.1
2018-09-06T21:07:43.025Z,19.1
2018-09-06T21:12:45.468Z,19
2018-09-06T21:17:47.928Z,19
2018-09-06T21:22:50.384Z,19.1
2018-09-06T21:27:52.841Z,19.1
2018-09-06T21:32:55.357Z,19
2018-09-06T21:37:57.794Z,18.9
2018-09-06T21:43:00.241Z,18.8
2018-09-06T21:48:02.714Z,18.7
2018-09-06T21:53:05.137Z,18.6
2018-09-06T21:58:07.610Z,18.6
2018-09-06T22:03:10.065Z,18.5
2018-09-06T22:08:12.582Z,18.6
2018-09-06T22:13:15.027Z,18.6
2018-09-06T22:18:17.482Z,18.8
2018-09-06T22:23:19.996Z,18.9
2018-09-06T22:28:22.414Z,18.9
2018-09-06T22:33:24.810Z,18.9
2018-09-06T22:38:27.267Z,19
2018-09-06T22:43:29.732Z,18.9
2018-09-06T22:48:32.207Z,18.9
2018-09-06T22:53:34.651Z,18.8
2018-09-06T22:58:37.148Z,18.7
2018-09-06T23:03:39.580Z,18.6
2018-09-06T23:08:42.043Z,18.6
2018-09-06T23:13:44.486Z,18.5
2018-09-06T23:18:46.928Z,18.4
2018-09-06T23:23:49.395Z,18.2
2018-09-06T23:28:52.031Z,18
2018-09-06T23:33:54.315Z,17.8
2018-09-06T23:38:56.825Z,17.6
2018-09-06T23:43:59.221Z,17.3
2018-09-06T23:49:02.117Z,17.1
2018-09-06T23:54:04.156Z,16.9
2018-09-06T23:59:06.613Z,16.8
